createdAt,value
2023-01-11T00:02:04.887Z,47.52
2023-01-11T00:04:31.200Z,47.06
2023-01-11T00:06:57.600Z,47.42
2023-01-11T00:09:23.901Z,47.40
2023-01-11T00:11:50.161Z,47.62
2023-01-11T00:14:16.411Z,47.56
2023-01-11T00:16:42.684Z,47.78
2023-01-11T00:19:08.949Z,47.84
2023-01-11T00:21:35.238Z,47.67
2023-01-11T00:24:01.502Z,47.73
2023-01-11T00:26:27.759Z,47.75
2023-01-11T00:28:54.017Z,47.82
2023-01-11T00:31:20.292Z,48.00
2023-01-11T00:33:46.660Z,47.67
2023-01-11T00:36:12.917Z,47.82
2023-01-11T00:38:39.176Z,47.73
2023-01-11T00:41:05.435Z,47.80
2023-01-11T00:43:31.708Z,47.77
2023-01-11T00:45:57.984Z,47.69
2023-01-11T00:48:24.272Z,47.37
2023-01-11T00:50:50.526Z,47.69
2023-01-11T00:53:16.783Z,47.65
2023-01-11T00:55:43.056Z,47.91
2023-01-11T00:58:09.429Z,47.69
2023-01-11T01:00:35.694Z,48.12
2023-01-11T01:03:01.950Z,48.08
2023-01-11T01:05:28.316Z,47.75
2023-01-11T01:07:54.573Z,47.86
2023-01-11T01:10:20.837Z,47.92
2023-01-11T01:12:47.141Z,47.95
2023-01-11T01:15:13.396Z,47.77
2023-01-11T01:17:39.661Z,47.90
2023-01-11T01:20:05.934Z,47.94
2023-01-11T01:22:32.186Z,47.78
2023-01-11T01:24:58.465Z,48.11
2023-01-11T01:27:24.726Z,48.28
2023-01-11T01:29:51.020Z,48.05
2023-01-11T01:32:17.293Z,48.23
2023-01-11T01:34:43.564Z,47.95
2023-01-11T01:37:09.833Z,48.15
2023-01-11T01:39:36.083Z,48.07
2023-01-11T01:42:02.369Z,48.05
2023-01-11T01:44:28.625Z,48.50
2023-01-11T01:46:54.880Z,48.50
2023-01-11T01:49:21.158Z,48.61
2023-01-11T01:51:47.420Z,48.52
2023-01-11T01:54:13.677Z,48.30
2023-01-11T01:56:39.939Z,48.22
2023-01-11T01:59:06.183Z,48.48
2023-01-11T02:01:32.477Z,48.21
2023-01-11T02:03:58.818Z,48.18
2023-01-11T02:06:25.102Z,48.66
2023-01-11T02:08:51.346Z,48.48
2023-01-11T02:11:17.626Z,48.56
2023-01-11T02:13:43.864Z,48.59
2023-01-11T02:16:10.144Z,48.67
2023-01-11T02:18:36.539Z,48.79
2023-01-11T02:21:02.861Z,48.20
2023-01-11T02:23:29.127Z,48.53
2023-01-11T02:25:55.399Z,48.73
2023-01-11T02:28:21.652Z,48.31
2023-01-11T02:30:47.907Z,48.65
2023-01-11T02:33:14.161Z,48.72
2023-01-11T02:35:40.411Z,48.36
2023-01-11T02:38:06.692Z,48.33
2023-01-11T02:40:32.936Z,48.45
2023-01-11T02:42:59.196Z,48.53
2023-01-11T02:45:25.452Z,48.33
2023-01-11T02:47:51.700Z,48.48
2023-01-11T02:50:17.989Z,48.59
2023-01-11T02:52:44.259Z,48.26
2023-01-11T02:55:10.515Z,48.64
2023-01-11T02:57:36.770Z,48.78
2023-01-11T03:00:03.019Z,48.75
2023-01-11T03:02:29.341Z,48.47
2023-01-11T03:04:55.722Z,48.51
2023-01-11T03:07:21.971Z,48.59
2023-01-11T03:09:48.237Z,48.43
2023-01-11T03:12:14.506Z,48.90
2023-01-11T03:14:40.765Z,48.76
2023-01-11T03:17:07.025Z,48.44
2023-01-11T03:19:33.292Z,48.36
2023-01-11T03:21:59.543Z,48.29
2023-01-11T03:24:25.802Z,48.38
2023-01-11T03:26:52.069Z,48.69
2023-01-11T03:29:18.314Z,48.81
2023-01-11T03:31:44.586Z,48.52
2023-01-11T03:34:10.893Z,48.71
2023-01-11T03:36:37.146Z,48.65
2023-01-11T03:39:03.400Z,48.85
2023-01-11T03:41:29.666Z,48.92
2023-01-11T03:43:55.908Z,48.82
2023-01-11T03:46:22.193Z,48.67
2023-01-11T03:48:48.556Z,48.93
2023-01-11T03:51:14.836Z,48.64
2023-01-11T03:53:41.119Z,48.84
2023-01-11T03:56:07.382Z,48.72
2023-01-11T03:58:33.627Z,48.94
2023-01-11T04:01:00.014Z,49.28
2023-01-11T04:03:27.327Z,49.16
2023-01-11T04:05:53.608Z,49.44
2023-01-11T04:08:19.923Z,49.21
2023-01-11T04:10:46.177Z,49.20
2023-01-11T04:13:12.447Z,49.02
2023-01-11T04:15:38.697Z,49.63
2023-01-11T04:18:05.062Z,49.41
2023-01-11T04:20:31.322Z,49.47
2023-01-11T04:22:57.579Z,49.22
2023-01-11T04:25:23.852Z,49.24
2023-01-11T04:27:50.095Z,49.34
2023-01-11T04:30:16.396Z,49.32
2023-01-11T04:32:42.664Z,49.49
2023-01-11T04:35:08.947Z,49.09
2023-01-11T04:37:35.188Z,49.50
2023-01-11T04:40:01.445Z,49.40
2023-01-11T04:42:27.693Z,49.25
2023-01-11T04:44:53.965Z,49.59
2023-01-11T04:47:20.212Z,49.32
2023-01-11T04:49:46.494Z,49.21
2023-01-11T04:52:12.753Z,49.48
2023-01-11T04:54:39.019Z,49.62
2023-01-11T04:57:05.319Z,49.43
2023-01-11T04:59:31.569Z,49.83
2023-01-11T05:01:57.828Z,49.80
2023-01-11T05:04:24.144Z,49.20
2023-01-11T05:06:50.605Z,49.17
2023-01-11T05:09:17.003Z,49.90
2023-01-11T05:11:43.384Z,49.44
2023-01-11T05:14:09.724Z,49.47
2023-01-11T05:16:36.134Z,49.55
2023-01-11T05:19:02.529Z,49.66
2023-01-11T05:21:28.890Z,49.57
2023-01-11T05:23:55.238Z,49.32
2023-01-11T05:26:21.585Z,49.30
2023-01-11T05:28:47.927Z,49.62
2023-01-11T05:31:14.398Z,49.21
2023-01-11T05:33:40.761Z,49.19
2023-01-11T05:36:07.212Z,49.49
2023-01-11T05:38:33.693Z,49.18
2023-01-11T05:41:00.047Z,48.88
2023-01-11T05:43:26.404Z,49.19
2023-01-11T05:45:52.862Z,48.89
2023-01-11T05:48:19.283Z,48.93
2023-01-11T05:50:45.639Z,48.83
2023-01-11T05:53:12.023Z,49.29
2023-01-11T05:55:38.386Z,49.03
2023-01-11T05:58:04.746Z,48.80
2023-01-11T06:00:31.124Z,48.65
2023-01-11T06:02:57.546Z,48.79
2023-01-11T06:05:23.937Z,48.68
2023-01-11T06:07:50.322Z,48.69
2023-01-11T06:10:16.690Z,48.51
2023-01-11T06:12:43.073Z,48.68
2023-01-11T06:15:09.443Z,48.47
2023-01-11T06:17:35.799Z,48.72
2023-01-11T06:20:02.150Z,48.71
2023-01-11T06:22:28.495Z,48.70
2023-01-11T06:24:54.852Z,48.69
2023-01-11T06:27:21.263Z,48.76
2023-01-11T06:29:47.636Z,48.69
2023-01-11T06:32:14.008Z,48.05
2023-01-11T06:34:40.368Z,48.56
2023-01-11T06:37:06.745Z,48.45
2023-01-11T06:39:33.098Z,48.41
2023-01-11T06:41:59.451Z,48.23
2023-01-11T06:44:25.798Z,48.25
2023-01-11T06:46:52.199Z,48.22
2023-01-11T06:49:18.553Z,48.39
2023-01-11T06:51:44.901Z,48.41
2023-01-11T06:54:11.266Z,48.17
2023-01-11T06:56:37.634Z,48.11
2023-01-11T06:59:04.016Z,48.04
2023-01-11T07:01:30.571Z,48.31
2023-01-11T07:03:57.165Z,48.27
2023-01-11T07:06:23.529Z,47.84
2023-01-11T07:08:49.896Z,48.31
2023-01-11T07:11:16.290Z,47.93
2023-01-11T07:13:42.697Z,48.00
2023-01-11T07:16:09.097Z,47.97
2023-01-11T07:18:35.481Z,47.69
2023-01-11T07:21:01.860Z,48.02
2023-01-11T07:23:28.233Z,48.11
2023-01-11T07:25:54.641Z,48.08
2023-01-11T07:28:21.074Z,47.99
2023-01-11T07:30:58.097Z,48.01
2023-01-11T07:33:24.875Z,48.18
2023-01-11T07:35:51.237Z,47.63
2023-01-11T07:38:17.587Z,47.79
2023-01-11T07:40:43.970Z,47.83
2023-01-11T07:43:10.353Z,47.64
2023-01-11T07:45:45.464Z,47.69
2023-01-11T07:48:12.427Z,47.57
2023-01-11T07:50:38.795Z,47.64
2023-01-11T07:53:05.178Z,47.68
2023-01-11T07:55:31.553Z,47.58
2023-01-11T07:57:57.936Z,47.87
2023-01-11T08:00:24.313Z,47.70
2023-01-11T08:02:52.267Z,47.69
2023-01-11T08:05:18.667Z,47.58
2023-01-11T08:07:45.065Z,47.15
2023-01-11T08:10:11.417Z,47.28
2023-01-11T08:12:37.799Z,47.62
2023-01-11T08:15:04.186Z,47.34
2023-01-11T08:17:30.554Z,47.14
2023-01-11T08:19:56.998Z,47.21
2023-01-11T08:22:23.364Z,47.48
2023-01-11T08:24:49.733Z,47.04
2023-01-11T08:27:16.079Z,47.25
2023-01-11T08:29:42.426Z,47.22
2023-01-11T08:32:08.820Z,47.40
2023-01-11T08:34:35.228Z,47.04
2023-01-11T08:37:01.651Z,47.38
2023-01-11T08:39:28.035Z,46.99
2023-01-11T08:41:54.398Z,47.02
2023-01-11T08:44:33.301Z,46.93
2023-01-11T08:47:00.637Z,46.90
2023-01-11T08:49:27.013Z,46.99
2023-01-11T08:51:53.416Z,47.11
2023-01-11T08:54:19.815Z,46.74
2023-01-11T08:56:46.199Z,46.73
2023-01-11T08:59:12.666Z,46.89
2023-01-11T09:01:39.095Z,46.76
2023-01-11T09:04:15.802Z,46.39
2023-01-11T09:06:49.664Z,46.58
2023-01-11T09:09:16.073Z,46.41
2023-01-11T09:11:42.546Z,46.27
2023-01-11T09:14:08.925Z,46.17
2023-01-11T09:16:35.311Z,46.22
2023-01-11T09:19:01.680Z,46.14
2023-01-11T09:21:28.059Z,46.27
2023-01-11T09:23:54.438Z,46.42
2023-01-11T09:26:20.826Z,46.03
2023-01-11T09:28:47.353Z,46.15
2023-01-11T09:31:13.777Z,46.02
2023-01-11T09:33:40.207Z,46.21
2023-01-11T09:36:06.581Z,45.89
2023-01-11T09:38:32.948Z,45.78
2023-01-11T09:40:59.303Z,46.07
2023-01-11T09:43:25.780Z,45.74
2023-01-11T09:45:52.263Z,45.66
2023-01-11T09:48:18.651Z,45.51
2023-01-11T09:50:45.025Z,45.61
2023-01-11T09:53:11.426Z,45.67
2023-01-11T09:55:37.800Z,45.20
2023-01-11T09:58:04.193Z,45.42
2023-01-11T10:00:30.587Z,45.20
2023-01-11T10:02:56.945Z,45.06
2023-01-11T10:05:23.346Z,45.16
2023-01-11T10:07:49.694Z,45.29
2023-01-11T10:18:22.776Z,44.76
2023-01-11T10:18:57.959Z,44.71
2023-01-11T10:21:21.422Z,44.53
2023-01-11T10:23:47.836Z,44.33
2023-01-11T10:26:14.198Z,44.43
2023-01-11T10:28:40.561Z,44.66
2023-01-11T10:31:06.986Z,43.91
2023-01-11T10:33:33.361Z,44.21
2023-01-11T10:35:59.758Z,44.16
2023-01-11T10:38:26.132Z,44.33
2023-01-11T10:40:52.495Z,44.09
2023-01-11T10:43:18.852Z,43.58
2023-01-11T10:45:45.252Z,43.51
2023-01-11T10:48:11.692Z,43.45
2023-01-11T10:50:38.048Z,43.48
2023-01-11T10:53:04.398Z,43.62
2023-01-11T10:55:30.778Z,43.76
2023-01-11T10:58:00.440Z,43.70
2023-01-11T11:00:29.897Z,43.44
2023-01-11T11:02:56.263Z,43.32
2023-01-11T11:05:22.632Z,43.49
2023-01-11T11:07:49.112Z,43.35
2023-01-11T11:10:15.472Z,43.22
2023-01-11T11:12:41.823Z,43.26
2023-01-11T11:15:08.242Z,43.34
2023-01-11T11:17:34.607Z,43.27
2023-01-11T11:20:00.977Z,43.32
2023-01-11T11:22:27.376Z,43.13
2023-01-11T11:24:53.746Z,43.25
2023-01-11T11:27:20.117Z,42.99
2023-01-11T11:29:46.496Z,43.10
2023-01-11T11:32:12.866Z,42.97
2023-01-11T11:34:39.238Z,43.02
2023-01-11T11:37:05.598Z,43.14
2023-01-11T11:39:31.992Z,42.78
2023-01-11T11:41:58.345Z,43.32
2023-01-11T11:44:24.795Z,43.00
2023-01-11T11:46:51.252Z,42.87
2023-01-11T11:49:17.614Z,42.95
2023-01-11T11:51:43.977Z,43.08
2023-01-11T11:54:10.331Z,42.41
2023-01-11T11:56:36.705Z,42.57
2023-01-11T11:59:03.096Z,42.42
2023-01-11T12:01:29.477Z,42.72
2023-01-11T12:03:55.849Z,42.43
2023-01-11T12:06:22.196Z,42.71
2023-01-11T12:08:48.573Z,42.34
2023-01-11T12:11:14.956Z,42.44
2023-01-11T12:13:41.319Z,42.04
2023-01-11T12:16:07.695Z,41.86
2023-01-11T12:18:34.134Z,42.09
2023-01-11T12:21:00.500Z,42.03
2023-01-11T12:23:26.873Z,42.37
2023-01-11T12:25:53.269Z,41.93
2023-01-11T12:28:19.628Z,41.90
2023-01-11T12:30:46.075Z,41.59
2023-01-11T12:33:12.503Z,41.75
2023-01-11T12:35:38.901Z,42.01
2023-01-11T12:38:05.290Z,41.79
2023-01-11T12:40:31.648Z,41.60
2023-01-11T12:42:58.029Z,41.77
2023-01-11T12:45:24.417Z,41.68
2023-01-11T12:47:50.793Z,42.28
2023-01-11T12:50:17.177Z,42.25
2023-01-11T12:52:43.605Z,42.25
2023-01-11T12:55:09.966Z,42.15
2023-01-11T12:57:36.338Z,42.04
2023-01-11T13:00:02.686Z,41.92
2023-01-11T13:02:29.157Z,41.31
2023-01-11T13:04:55.565Z,41.71
2023-01-11T13:07:21.915Z,41.90
2023-01-11T13:09:48.309Z,41.46
2023-01-11T13:12:14.672Z,41.60
2023-01-11T13:14:41.053Z,41.83
2023-01-11T13:17:07.496Z,41.69
2023-01-11T13:19:33.895Z,41.61
2023-01-11T13:22:00.291Z,42.06
2023-01-11T13:24:26.673Z,41.72
2023-01-11T13:26:53.070Z,41.67
2023-01-11T13:29:19.478Z,41.91
2023-01-11T13:31:45.861Z,41.80
2023-01-11T13:34:12.245Z,41.38
2023-01-11T13:36:38.656Z,41.64
2023-01-11T13:39:05.043Z,41.48
2023-01-11T13:41:31.409Z,41.10
2023-01-11T13:43:57.796Z,41.38
2023-01-11T13:46:24.190Z,41.41
2023-01-11T13:48:50.591Z,41.32
2023-01-11T13:51:17.008Z,41.26
2023-01-11T13:53:43.368Z,41.21
2023-01-11T13:56:09.742Z,41.03
2023-01-11T13:58:37.024Z,40.75
2023-01-11T14:01:03.595Z,40.95
2023-01-11T14:03:30.093Z,40.71
2023-01-11T14:05:56.487Z,41.26
2023-01-11T14:08:22.876Z,40.90
2023-01-11T14:10:49.241Z,40.88
2023-01-11T14:13:15.616Z,40.74
2023-01-11T14:15:42.068Z,40.45
2023-01-11T14:18:08.508Z,40.62
2023-01-11T14:20:34.880Z,40.43
2023-01-11T14:23:01.228Z,40.80
2023-01-11T14:25:27.610Z,40.73
2023-01-11T14:27:53.977Z,40.78
2023-01-11T14:30:20.348Z,40.44
2023-01-11T14:32:46.717Z,40.35
2023-01-11T14:35:13.099Z,40.48
2023-01-11T14:37:39.472Z,40.64
2023-01-11T14:40:05.847Z,40.88
2023-01-11T14:42:35.271Z,40.65
2023-01-11T14:45:02.125Z,40.54
2023-01-11T14:47:28.508Z,40.23
2023-01-11T14:49:54.873Z,40.45
2023-01-11T14:52:25.517Z,40.29
2023-01-11T14:55:00.954Z,40.49
2023-01-11T14:57:27.339Z,40.49
2023-01-11T14:59:53.709Z,40.27
2023-01-11T15:02:20.063Z,40.55
2023-01-11T15:04:46.511Z,40.38
2023-01-11T15:07:12.908Z,40.79
2023-01-11T15:09:39.285Z,40.58
2023-01-11T15:12:05.653Z,40.59
2023-01-11T15:14:32.059Z,40.27
2023-01-11T15:16:58.464Z,40.28
2023-01-11T15:19:24.822Z,40.37
2023-01-11T15:21:51.189Z,40.24
2023-01-11T15:24:17.561Z,40.51
2023-01-11T15:26:44.078Z,40.55
2023-01-11T15:29:10.528Z,40.21
2023-01-11T15:31:36.971Z,40.08
2023-01-11T15:34:03.393Z,40.13
2023-01-11T15:36:29.828Z,40.24
2023-01-11T15:38:56.191Z,40.30
2023-01-11T15:41:22.581Z,40.32
2023-01-11T15:43:48.990Z,40.41
2023-01-11T15:46:15.379Z,39.80
2023-01-11T15:48:41.778Z,40.00
2023-01-11T15:51:08.175Z,40.00
2023-01-11T15:53:34.535Z,39.86
2023-01-11T15:56:00.933Z,39.40
2023-01-11T15:58:27.311Z,39.90
2023-01-11T16:00:53.701Z,39.78
2023-01-11T16:03:20.099Z,39.90
2023-01-11T16:05:46.441Z,39.95
2023-01-11T16:08:12.875Z,39.95
2023-01-11T16:10:39.282Z,40.01
2023-01-11T16:13:05.691Z,40.13
2023-01-11T16:15:32.063Z,40.29
2023-01-11T16:17:58.438Z,40.23
2023-01-11T16:20:24.848Z,39.90
2023-01-11T16:22:51.208Z,39.97
2023-01-11T16:25:17.598Z,40.17
2023-01-11T16:27:43.955Z,40.13
2023-01-11T16:30:10.333Z,40.17
2023-01-11T16:32:36.725Z,40.44
2023-01-11T16:35:03.098Z,40.48
2023-01-11T16:37:29.451Z,40.46
2023-01-11T16:39:55.828Z,40.61
2023-01-11T16:42:22.237Z,40.17
2023-01-11T16:44:48.590Z,40.20
2023-01-11T16:47:14.935Z,40.33
2023-01-11T16:49:41.325Z,40.40
2023-01-11T16:52:07.696Z,40.26
2023-01-11T16:54:34.067Z,40.35
2023-01-11T16:57:00.465Z,40.62
2023-01-11T16:59:26.909Z,40.24
2023-01-11T17:01:53.352Z,40.48
2023-01-11T17:04:19.790Z,40.42
2023-01-11T17:06:46.172Z,40.62
2023-01-11T17:09:19.441Z,40.35
2023-01-11T17:11:46.040Z,40.55
2023-01-11T17:14:12.520Z,40.49
2023-01-11T17:16:39.142Z,40.37
2023-01-11T17:19:05.593Z,40.61
2023-01-11T17:21:31.969Z,40.35
2023-01-11T17:23:58.361Z,40.20
2023-01-11T17:26:24.761Z,40.49
2023-01-11T17:28:51.144Z,40.01
2023-01-11T17:31:18.456Z,40.39
2023-01-11T17:33:44.817Z,40.37
2023-01-11T17:36:11.174Z,40.45
2023-01-11T17:38:37.637Z,40.68
2023-01-11T17:41:04.032Z,40.53
2023-01-11T17:43:30.398Z,40.21
2023-01-11T17:45:56.886Z,40.58
2023-01-11T17:48:23.330Z,40.32
2023-01-11T17:50:49.718Z,40.32
2023-01-11T17:53:16.082Z,40.24
2023-01-11T17:55:42.457Z,40.44
2023-01-11T17:58:08.807Z,40.19
2023-01-11T18:00:35.196Z,40.39
2023-01-11T18:03:01.562Z,40.48
2023-01-11T18:05:27.958Z,40.55
2023-01-11T18:07:54.354Z,40.47
2023-01-11T18:10:20.711Z,40.46
2023-01-11T18:12:47.085Z,40.65
2023-01-11T18:15:13.454Z,40.53
2023-01-11T18:17:39.792Z,40.54
2023-01-11T18:20:06.275Z,40.51
2023-01-11T18:22:32.646Z,40.46
2023-01-11T18:24:59.025Z,40.38
2023-01-11T18:27:25.396Z,40.47
2023-01-11T18:29:51.771Z,40.62
2023-01-11T18:32:18.120Z,40.38
2023-01-11T18:34:44.501Z,40.68
2023-01-11T18:37:10.885Z,40.38
2023-01-11T18:39:37.250Z,40.54
2023-01-11T18:42:03.658Z,40.74
2023-01-11T18:44:30.060Z,40.63
2023-01-11T18:46:56.435Z,40.31
2023-01-11T18:49:22.772Z,40.58
2023-01-11T18:51:49.170Z,40.66
2023-01-11T18:54:15.536Z,40.55
2023-01-11T18:56:41.930Z,40.29
2023-01-11T18:59:08.318Z,40.45
2023-01-11T19:01:46.883Z,40.62
2023-01-11T19:04:20.648Z,40.66
2023-01-11T19:06:47.012Z,40.46
2023-01-11T19:09:13.381Z,40.77
2023-01-11T19:11:39.768Z,40.48
2023-01-11T19:14:06.146Z,40.52
2023-01-11T19:16:32.510Z,40.64
2023-01-11T19:18:58.880Z,40.50
2023-01-11T19:21:25.353Z,40.43
2023-01-11T19:23:51.847Z,40.56
2023-01-11T19:26:18.224Z,40.52
2023-01-11T19:28:44.581Z,40.72
2023-01-11T19:31:11.031Z,40.52
2023-01-11T19:33:37.421Z,40.72
2023-01-11T19:36:03.774Z,40.55
2023-01-11T19:38:30.147Z,40.69
2023-01-11T19:40:56.507Z,40.75
2023-01-11T19:43:22.876Z,40.64
2023-01-11T19:45:49.281Z,40.51
2023-01-11T19:48:15.732Z,40.54
2023-01-11T19:50:42.093Z,40.34
2023-01-11T19:53:08.446Z,40.58
2023-01-11T19:55:34.840Z,40.60
2023-01-11T19:58:01.220Z,40.65
2023-01-11T20:00:27.573Z,40.78
2023-01-11T20:02:53.984Z,40.57
2023-01-11T20:05:20.378Z,40.56
2023-01-11T20:07:46.747Z,40.59
2023-01-11T20:10:13.139Z,40.65
2023-01-11T20:12:39.499Z,40.43
2023-01-11T20:15:05.862Z,40.71
2023-01-11T20:17:32.256Z,40.73
2023-01-11T20:19:58.651Z,40.57
2023-01-11T20:22:25.036Z,40.61
2023-01-11T20:24:51.451Z,40.76
2023-01-11T20:27:17.836Z,40.71
2023-01-11T20:29:44.244Z,40.62
2023-01-11T20:32:35.018Z,40.57
2023-01-11T20:34:56.991Z,40.52
2023-01-11T20:37:23.400Z,40.57
2023-01-11T20:39:49.762Z,40.65
2023-01-11T20:42:16.131Z,40.87
2023-01-11T20:44:42.511Z,40.70
2023-01-11T20:47:08.881Z,40.70
2023-01-11T20:49:35.245Z,40.52
2023-01-11T20:52:01.631Z,40.76
2023-01-11T20:54:28.069Z,40.81
2023-01-11T20:56:54.438Z,40.77
2023-01-11T20:59:20.794Z,40.89
2023-01-11T21:01:47.246Z,40.32
2023-01-11T21:04:13.642Z,40.42
2023-01-11T21:06:40.010Z,40.69
2023-01-11T21:09:06.394Z,40.46
2023-01-11T21:11:32.785Z,40.83
2023-01-11T21:13:59.176Z,40.58
2023-01-11T21:16:25.665Z,40.37
2023-01-11T21:18:52.116Z,41.11
2023-01-11T21:21:18.486Z,40.68
2023-01-11T21:23:44.838Z,40.64
2023-01-11T21:26:11.221Z,40.94
2023-01-11T21:28:37.620Z,40.85
2023-01-11T21:31:04.059Z,40.61
2023-01-11T21:33:30.467Z,40.48
2023-01-11T21:35:56.825Z,40.72
2023-01-11T21:38:23.173Z,40.76
2023-01-11T21:40:49.553Z,40.56
2023-01-11T21:43:15.934Z,40.50
2023-01-11T21:45:42.295Z,40.61
2023-01-11T21:48:08.684Z,40.41
2023-01-11T21:50:35.121Z,40.37
2023-01-11T21:53:01.558Z,40.89
2023-01-11T21:55:27.906Z,40.28
2023-01-11T21:57:54.277Z,40.50
2023-01-11T22:00:20.649Z,40.63
2023-01-11T22:02:46.998Z,40.74
2023-01-11T22:05:13.375Z,40.93
2023-01-11T22:07:39.729Z,40.70
2023-01-11T22:10:06.121Z,40.88
2023-01-11T22:12:32.505Z,40.83
2023-01-11T22:14:58.871Z,40.74
2023-01-11T22:17:25.346Z,40.54
2023-01-11T22:19:51.705Z,40.49
2023-01-11T22:22:18.100Z,40.52
2023-01-11T22:24:44.486Z,40.50
2023-01-11T22:27:12.023Z,40.70
2023-01-11T22:29:38.430Z,40.93
2023-01-11T22:32:04.794Z,40.77
2023-01-11T22:34:31.151Z,40.85
2023-01-11T22:36:57.514Z,40.91
2023-01-11T22:39:23.890Z,40.63
2023-01-11T22:41:50.258Z,41.03
2023-01-11T22:44:16.650Z,41.14
2023-01-11T22:46:43.025Z,40.92
2023-01-11T22:49:09.422Z,40.64
2023-01-11T22:51:35.837Z,40.73
2023-01-11T22:54:02.236Z,40.62
2023-01-11T22:56:28.603Z,40.91
2023-01-11T22:58:54.962Z,40.96
2023-01-11T23:01:21.325Z,40.91
2023-01-11T23:03:47.889Z,41.04
2023-01-11T23:06:14.317Z,40.87
2023-01-11T23:08:40.768Z,40.85
2023-01-11T23:11:07.156Z,40.68
2023-01-11T23:13:33.538Z,41.11
2023-01-11T23:15:59.931Z,41.17
2023-01-11T23:18:26.309Z,40.94
2023-01-11T23:20:52.687Z,40.82
2023-01-11T23:23:19.037Z,40.73
2023-01-11T23:25:45.421Z,40.86
2023-01-11T23:28:11.837Z,41.07
2023-01-11T23:30:38.215Z,40.84
2023-01-11T23:33:04.574Z,40.82
2023-01-11T23:35:30.959Z,40.98
2023-01-11T23:37:57.344Z,41.15
2023-01-11T23:40:23.714Z,40.93
2023-01-11T23:42:50.077Z,40.91
2023-01-11T23:45:16.432Z,40.75
2023-01-11T23:47:42.789Z,40.82
2023-01-11T23:50:09.145Z,40.93
2023-01-11T23:52:35.524Z,41.20
2023-01-11T23:55:01.994Z,40.80
2023-01-11T23:57:28.368Z,40.95
2023-01-11T23:59:54.742Z,41.03
